sensor_id;sensor_type;location;lat;lon;timestamp;P1;durP1;ratioP1;P2;durP2;ratioP2
11582;SDS011;34299;50.820;4.548;2022-11-14T00:01:53;15.87;;;10.13;;
11582;SDS011;34299;50.820;4.548;2022-11-14T00:04:20;17.63;;;9.43;;
11582;SDS011;34299;50.820;4.548;2022-11-14T00:06:48;15.27;;;9.83;;
11582;SDS011;34299;50.820;4.548;2022-11-14T00:09:16;17.43;;;10.80;;
11582;SDS011;34299;50.820;4.548;2022-11-14T00:11:43;16.60;;;10.03;;
11582;SDS011;34299;50.820;4.548;2022-11-14T00:14:10;15.20;;;9.47;;
11582;SDS011;34299;50.820;4.548;2022-11-14T00:16:37;18.60;;;10.43;;
11582;SDS011;34299;50.820;4.548;2022-11-14T00:19:04;17.00;;;10.77;;
11582;SDS011;34299;50.820;4.548;2022-11-14T00:21:32;16.23;;;10.80;;
11582;SDS011;34299;50.820;4.548;2022-11-14T00:24:00;13.40;;;8.80;;
11582;SDS011;34299;50.820;4.548;2022-11-14T00:26:27;15.03;;;9.87;;
11582;SDS011;34299;50.820;4.548;2022-11-14T00:28:55;12.43;;;8.30;;
11582;SDS011;34299;50.820;4.548;2022-11-14T00:31:22;11.90;;;8.67;;
11582;SDS011;34299;50.820;4.548;2022-11-14T00:33:49;10.70;;;8.17;;
11582;SDS011;34299;50.820;4.548;2022-11-14T00:36:16;15.73;;;8.83;;
11582;SDS011;34299;50.820;4.548;2022-11-14T00:38:43;10.87;;;8.63;;
11582;SDS011;34299;50.820;4.548;2022-11-14T00:41:12;14.50;;;8.73;;
11582;SDS011;34299;50.820;4.548;2022-11-14T00:43:39;15.93;;;9.50;;
11582;SDS011;34299;50.820;4.548;2022-11-14T00:46:06;11.93;;;8.43;;
11582;SDS011;34299;50.820;4.548;2022-11-14T00:48:33;16.40;;;8.63;;
11582;SDS011;34299;50.820;4.548;2022-11-14T00:51:00;10.93;;;8.57;;
11582;SDS011;34299;50.820;4.548;2022-11-14T00:53:28;15.50;;;10.53;;
11582;SDS011;34299;50.820;4.548;2022-11-14T00:55:55;15.00;;;9.30;;
11582;SDS011;34299;50.820;4.548;2022-11-14T00:58:23;12.20;;;8.17;;
11582;SDS011;34299;50.820;4.548;2022-11-14T01:00:51;19.80;;;10.63;;
11582;SDS011;34299;50.820;4.548;2022-11-14T01:03:18;13.33;;;8.63;;
11582;SDS011;34299;50.820;4.548;2022-11-14T01:05:46;13.73;;;8.73;;
11582;SDS011;34299;50.820;4.548;2022-11-14T01:08:14;14.57;;;7.97;;
11582;SDS011;34299;50.820;4.548;2022-11-14T01:10:42;13.10;;;8.73;;
11582;SDS011;34299;50.820;4.548;2022-11-14T01:13:09;17.50;;;13.07;;
11582;SDS011;34299;50.820;4.548;2022-11-14T01:15:39;18.63;;;13.83;;
11582;SDS011;34299;50.820;4.548;2022-11-14T01:18:06;20.37;;;15.47;;
11582;SDS011;34299;50.820;4.548;2022-11-14T01:20:33;23.17;;;15.70;;
11582;SDS011;34299;50.820;4.548;2022-11-14T01:23:00;21.20;;;14.80;;
11582;SDS011;34299;50.820;4.548;2022-11-14T01:25:27;21.70;;;14.37;;
11582;SDS011;34299;50.820;4.548;2022-11-14T01:27:54;20.67;;;15.53;;
11582;SDS011;34299;50.820;4.548;2022-11-14T01:30:22;25.10;;;15.80;;
11582;SDS011;34299;50.820;4.548;2022-11-14T01:32:50;21.30;;;14.27;;
11582;SDS011;34299;50.820;4.548;2022-11-14T01:35:17;21.50;;;15.27;;
11582;SDS011;34299;50.820;4.548;2022-11-14T01:37:44;20.23;;;14.73;;
11582;SDS011;34299;50.820;4.548;2022-11-14T01:40:12;20.73;;;15.10;;
11582;SDS011;34299;50.820;4.548;2022-11-14T01:42:39;21.40;;;15.07;;
11582;SDS011;34299;50.820;4.548;2022-11-14T01:47:53;23.63;;;15.40;;
11582;SDS011;34299;50.820;4.548;2022-11-14T01:50:20;18.17;;;13.60;;
11582;SDS011;34299;50.820;4.548;2022-11-14T01:52:47;18.40;;;13.23;;
11582;SDS011;34299;50.820;4.548;2022-11-14T01:55:14;18.80;;;13.93;;
11582;SDS011;34299;50.820;4.548;2022-11-14T01:57:43;19.17;;;13.87;;
11582;SDS011;34299;50.820;4.548;2022-11-14T02:00:11;19.23;;;13.87;;
11582;SDS011;34299;50.820;4.548;2022-11-14T02:02:39;21.63;;;14.33;;
11582;SDS011;34299;50.820;4.548;2022-11-14T02:05:09;20.13;;;14.23;;
11582;SDS011;34299;50.820;4.548;2022-11-14T02:07:38;16.17;;;11.13;;
11582;SDS011;34299;50.820;4.548;2022-11-14T02:10:07;20.27;;;13.67;;
11582;SDS011;34299;50.820;4.548;2022-11-14T02:12:34;17.27;;;12.57;;
11582;SDS011;34299;50.820;4.548;2022-11-14T02:15:02;19.00;;;13.00;;
11582;SDS011;34299;50.820;4.548;2022-11-14T02:17:29;18.83;;;12.97;;
11582;SDS011;34299;50.820;4.548;2022-11-14T02:20:04;17.87;;;13.33;;
11582;SDS011;34299;50.820;4.548;2022-11-14T02:22:31;18.33;;;13.23;;
11582;SDS011;34299;50.820;4.548;2022-11-14T02:24:58;16.03;;;12.43;;
11582;SDS011;34299;50.820;4.548;2022-11-14T02:27:25;17.00;;;12.90;;
11582;SDS011;34299;50.820;4.548;2022-11-14T02:29:53;21.10;;;14.30;;
11582;SDS011;34299;50.820;4.548;2022-11-14T02:32:20;22.83;;;14.17;;
11582;SDS011;34299;50.820;4.548;2022-11-14T02:34:47;18.37;;;14.30;;
11582;SDS011;34299;50.820;4.548;2022-11-14T02:37:15;18.60;;;14.07;;
11582;SDS011;34299;50.820;4.548;2022-11-14T02:39:43;20.20;;;13.53;;
11582;SDS011;34299;50.820;4.548;2022-11-14T02:42:10;19.10;;;14.10;;
11582;SDS011;34299;50.820;4.548;2022-11-14T02:44:37;20.33;;;14.17;;
11582;SDS011;34299;50.820;4.548;2022-11-14T02:47:04;21.83;;;14.77;;
11582;SDS011;34299;50.820;4.548;2022-11-14T02:49:31;18.43;;;13.40;;
11582;SDS011;34299;50.820;4.548;2022-11-14T02:51:58;19.40;;;13.63;;
11582;SDS011;34299;50.820;4.548;2022-11-14T02:54:27;20.17;;;14.40;;
11582;SDS011;34299;50.820;4.548;2022-11-14T02:56:54;18.20;;;13.40;;
11582;SDS011;34299;50.820;4.548;2022-11-14T02:59:21;21.27;;;15.30;;
11582;SDS011;34299;50.820;4.548;2022-11-14T03:01:48;16.80;;;13.50;;
11582;SDS011;34299;50.820;4.548;2022-11-14T03:04:16;24.30;;;14.17;;
11582;SDS011;34299;50.820;4.548;2022-11-14T03:06:43;18.43;;;12.70;;
11582;SDS011;34299;50.820;4.548;2022-11-14T03:09:10;18.77;;;13.30;;
11582;SDS011;34299;50.820;4.548;2022-11-14T03:11:38;18.57;;;13.00;;
11582;SDS011;34299;50.820;4.548;2022-11-14T03:14:06;14.10;;;11.47;;
11582;SDS011;34299;50.820;4.548;2022-11-14T03:16:33;12.73;;;9.83;;
11582;SDS011;34299;50.820;4.548;2022-11-14T03:19:00;12.37;;;8.93;;
11582;SDS011;34299;50.820;4.548;2022-11-14T03:21:27;12.40;;;8.37;;
11582;SDS011;34299;50.820;4.548;2022-11-14T03:23:54;11.77;;;9.33;;
11582;SDS011;34299;50.820;4.548;2022-11-14T03:26:21;15.93;;;11.77;;
11582;SDS011;34299;50.820;4.548;2022-11-14T03:28:50;17.30;;;12.50;;
11582;SDS011;34299;50.820;4.548;2022-11-14T03:31:19;20.97;;;13.50;;
11582;SDS011;34299;50.820;4.548;2022-11-14T03:33:46;21.67;;;14.27;;
11582;SDS011;34299;50.820;4.548;2022-11-14T03:36:13;18.93;;;13.43;;
11582;SDS011;34299;50.820;4.548;2022-11-14T03:38:41;19.60;;;13.87;;
11582;SDS011;34299;50.820;4.548;2022-11-14T03:41:09;19.10;;;13.30;;
11582;SDS011;34299;50.820;4.548;2022-11-14T03:43:36;18.17;;;12.77;;
11582;SDS011;34299;50.820;4.548;2022-11-14T03:46:04;15.70;;;12.13;;
11582;SDS011;34299;50.820;4.548;2022-11-14T03:48:32;18.03;;;12.90;;
11582;SDS011;34299;50.820;4.548;2022-11-14T03:50:59;18.33;;;12.20;;
11582;SDS011;34299;50.820;4.548;2022-11-14T03:53:26;18.57;;;12.20;;
11582;SDS011;34299;50.820;4.548;2022-11-14T03:55:53;16.10;;;12.97;;
11582;SDS011;34299;50.820;4.548;2022-11-14T03:58:20;17.77;;;12.17;;
11582;SDS011;34299;50.820;4.548;2022-11-14T04:00:48;15.60;;;12.10;;
11582;SDS011;34299;50.820;4.548;2022-11-14T04:03:16;18.17;;;13.03;;
11582;SDS011;34299;50.820;4.548;2022-11-14T04:05:43;17.27;;;13.13;;
11582;SDS011;34299;50.820;4.548;2022-11-14T04:08:11;17.40;;;13.43;;
11582;SDS011;34299;50.820;4.548;2022-11-14T04:10:38;19.30;;;13.50;;
11582;SDS011;34299;50.820;4.548;2022-11-14T04:13:05;20.20;;;12.47;;
11582;SDS011;34299;50.820;4.548;2022-11-14T04:15:33;19.63;;;13.33;;
11582;SDS011;34299;50.820;4.548;2022-11-14T04:18:00;18.70;;;13.10;;
11582;SDS011;34299;50.820;4.548;2022-11-14T04:20:29;17.47;;;12.50;;
11582;SDS011;34299;50.820;4.548;2022-11-14T04:22:56;17.20;;;12.37;;
11582;SDS011;34299;50.820;4.548;2022-11-14T04:25:23;13.87;;;11.23;;
11582;SDS011;34299;50.820;4.548;2022-11-14T04:27:50;17.73;;;11.70;;
11582;SDS011;34299;50.820;4.548;2022-11-14T04:30:17;14.93;;;11.57;;
11582;SDS011;34299;50.820;4.548;2022-11-14T04:32:45;17.90;;;12.67;;
11582;SDS011;34299;50.820;4.548;2022-11-14T04:35:13;21.90;;;12.83;;
11582;SDS011;34299;50.820;4.548;2022-11-14T04:37:42;16.97;;;10.37;;
11582;SDS011;34299;50.820;4.548;2022-11-14T04:40:09;14.07;;;10.60;;
11582;SDS011;34299;50.820;4.548;2022-11-14T04:42:36;15.90;;;10.63;;
11582;SDS011;34299;50.820;4.548;2022-11-14T04:45:04;14.50;;;11.17;;
11582;SDS011;34299;50.820;4.548;2022-11-14T04:47:31;16.80;;;11.00;;
11582;SDS011;34299;50.820;4.548;2022-11-14T04:49:58;14.87;;;11.17;;
11582;SDS011;34299;50.820;4.548;2022-11-14T04:52:26;14.47;;;10.03;;
11582;SDS011;34299;50.820;4.548;2022-11-14T04:54:54;14.53;;;11.47;;
11582;SDS011;34299;50.820;4.548;2022-11-14T04:57:21;12.90;;;10.50;;
11582;SDS011;34299;50.820;4.548;2022-11-14T04:59:49;11.87;;;9.13;;
11582;SDS011;34299;50.820;4.548;2022-11-14T05:02:16;11.20;;;7.90;;
11582;SDS011;34299;50.820;4.548;2022-11-14T05:04:43;13.47;;;8.13;;
11582;SDS011;34299;50.820;4.548;2022-11-14T05:07:12;10.27;;;7.40;;
11582;SDS011;34299;50.820;4.548;2022-11-14T05:09:40;11.97;;;8.27;;
11582;SDS011;34299;50.820;4.548;2022-11-14T05:12:08;12.30;;;7.87;;
11582;SDS011;34299;50.820;4.548;2022-11-14T05:14:35;10.53;;;7.83;;
11582;SDS011;34299;50.820;4.548;2022-11-14T05:17:03;11.70;;;8.63;;
11582;SDS011;34299;50.820;4.548;2022-11-14T05:19:30;13.97;;;8.67;;
11582;SDS011;34299;50.820;4.548;2022-11-14T05:21:57;11.10;;;8.97;;
11582;SDS011;34299;50.820;4.548;2022-11-14T05:24:24;11.80;;;8.70;;
11582;SDS011;34299;50.820;4.548;2022-11-14T05:26:52;12.43;;;8.17;;
11582;SDS011;34299;50.820;4.548;2022-11-14T05:29:21;10.87;;;7.87;;
11582;SDS011;34299;50.820;4.548;2022-11-14T05:31:48;12.37;;;8.00;;
11582;SDS011;34299;50.820;4.548;2022-11-14T05:34:15;11.37;;;8.17;;
11582;SDS011;34299;50.820;4.548;2022-11-14T05:36:42;15.80;;;9.20;;
11582;SDS011;34299;50.820;4.548;2022-11-14T05:39:09;10.30;;;7.90;;
11582;SDS011;34299;50.820;4.548;2022-11-14T05:41:36;12.07;;;7.83;;
11582;SDS011;34299;50.820;4.548;2022-11-14T05:44:04;13.20;;;8.37;;
11582;SDS011;34299;50.820;4.548;2022-11-14T05:46:32;12.63;;;9.50;;
11582;SDS011;34299;50.820;4.548;2022-11-14T05:49:00;13.27;;;10.40;;
11582;SDS011;34299;50.820;4.548;2022-11-14T05:51:27;11.73;;;9.60;;
11582;SDS011;34299;50.820;4.548;2022-11-14T05:53:54;13.13;;;10.33;;
11582;SDS011;34299;50.820;4.548;2022-11-14T05:56:21;13.27;;;10.27;;
11582;SDS011;34299;50.820;4.548;2022-11-14T05:58:48;15.73;;;10.33;;
11582;SDS011;34299;50.820;4.548;2022-11-14T06:01:16;13.47;;;9.27;;
11582;SDS011;34299;50.820;4.548;2022-11-14T06:03:46;12.00;;;9.83;;
11582;SDS011;34299;50.820;4.548;2022-11-14T06:06:15;12.73;;;9.63;;
11582;SDS011;34299;50.820;4.548;2022-11-14T06:08:42;11.13;;;8.43;;
11582;SDS011;34299;50.820;4.548;2022-11-14T06:11:10;13.33;;;8.63;;
11582;SDS011;34299;50.820;4.548;2022-11-14T06:13:37;11.67;;;8.63;;
11582;SDS011;34299;50.820;4.548;2022-11-14T06:16:05;11.30;;;8.20;;
11582;SDS011;34299;50.820;4.548;2022-11-14T06:18:33;12.73;;;7.93;;
11582;SDS011;34299;50.820;4.548;2022-11-14T06:21:02;12.23;;;8.10;;
11582;SDS011;34299;50.820;4.548;2022-11-14T06:23:30;10.50;;;7.93;;
11582;SDS011;34299;50.820;4.548;2022-11-14T06:25:57;12.93;;;7.53;;
11582;SDS011;34299;50.820;4.548;2022-11-14T06:28:25;9.77;;;7.57;;
11582;SDS011;34299;50.820;4.548;2022-11-14T06:30:55;7.97;;;6.80;;
11582;SDS011;34299;50.820;4.548;2022-11-14T06:33:22;10.07;;;7.23;;
11582;SDS011;34299;50.820;4.548;2022-11-14T06:35:50;9.50;;;7.33;;
11582;SDS011;34299;50.820;4.548;2022-11-14T06:38:18;10.53;;;7.67;;
11582;SDS011;34299;50.820;4.548;2022-11-14T06:40:45;11.77;;;7.60;;
11582;SDS011;34299;50.820;4.548;2022-11-14T06:43:12;10.17;;;7.07;;
11582;SDS011;34299;50.820;4.548;2022-11-14T06:45:40;11.77;;;7.23;;
11582;SDS011;34299;50.820;4.548;2022-11-14T06:48:07;13.30;;;7.90;;
11582;SDS011;34299;50.820;4.548;2022-11-14T06:50:34;9.93;;;6.77;;
11582;SDS011;34299;50.820;4.548;2022-11-14T06:53:01;11.70;;;8.33;;
11582;SDS011;34299;50.820;4.548;2022-11-14T06:55:30;11.63;;;7.70;;
11582;SDS011;34299;50.820;4.548;2022-11-14T06:57:57;10.83;;;7.13;;
11582;SDS011;34299;50.820;4.548;2022-11-14T07:00:24;10.63;;;7.43;;
11582;SDS011;34299;50.820;4.548;2022-11-14T07:02:51;10.70;;;7.97;;
11582;SDS011;34299;50.820;4.548;2022-11-14T07:05:18;9.53;;;7.07;;
11582;SDS011;34299;50.820;4.548;2022-11-14T07:07:45;12.07;;;8.17;;
11582;SDS011;34299;50.820;4.548;2022-11-14T07:10:13;9.07;;;7.40;;
11582;SDS011;34299;50.820;4.548;2022-11-14T07:12:41;13.87;;;8.10;;
11582;SDS011;34299;50.820;4.548;2022-11-14T07:15:09;10.57;;;7.90;;
11582;SDS011;34299;50.820;4.548;2022-11-14T07:17:36;11.97;;;7.93;;
11582;SDS011;34299;50.820;4.548;2022-11-14T07:20:03;10.67;;;7.70;;
11582;SDS011;34299;50.820;4.548;2022-11-14T07:22:31;10.93;;;8.10;;
11582;SDS011;34299;50.820;4.548;2022-11-14T07:24:58;15.13;;;9.60;;
11582;SDS011;34299;50.820;4.548;2022-11-14T07:27:25;11.73;;;8.40;;
11582;SDS011;34299;50.820;4.548;2022-11-14T07:29:54;13.87;;;8.80;;
11582;SDS011;34299;50.820;4.548;2022-11-14T07:32:21;13.37;;;8.57;;
11582;SDS011;34299;50.820;4.548;2022-11-14T07:34:48;12.87;;;9.47;;
11582;SDS011;34299;50.820;4.548;2022-11-14T07:37:15;12.17;;;8.53;;
11582;SDS011;34299;50.820;4.548;2022-11-14T07:39:42;11.37;;;8.60;;
11582;SDS011;34299;50.820;4.548;2022-11-14T07:42:10;13.80;;;9.43;;
11582;SDS011;34299;50.820;4.548;2022-11-14T07:44:37;12.47;;;9.03;;
11582;SDS011;34299;50.820;4.548;2022-11-14T07:47:05;12.57;;;8.90;;
11582;SDS011;34299;50.820;4.548;2022-11-14T07:49:33;15.77;;;9.13;;
11582;SDS011;34299;50.820;4.548;2022-11-14T07:52:00;14.37;;;9.73;;
11582;SDS011;34299;50.820;4.548;2022-11-14T07:54:27;14.67;;;10.07;;
11582;SDS011;34299;50.820;4.548;2022-11-14T07:56:54;12.80;;;8.43;;
11582;SDS011;34299;50.820;4.548;2022-11-14T07:59:21;12.00;;;8.93;;
11582;SDS011;34299;50.820;4.548;2022-11-14T08:01:48;13.87;;;9.07;;
11582;SDS011;34299;50.820;4.548;2022-11-14T08:04:17;11.47;;;7.93;;
11582;SDS011;34299;50.820;4.548;2022-11-14T08:06:44;10.53;;;8.10;;
11582;SDS011;34299;50.820;4.548;2022-11-14T08:09:11;12.77;;;8.40;;
11582;SDS011;34299;50.820;4.548;2022-11-14T08:11:38;12.53;;;8.07;;
11582;SDS011;34299;50.820;4.548;2022-11-14T08:14:15;12.83;;;9.43;;
11582;SDS011;34299;50.820;4.548;2022-11-14T08:16:43;11.77;;;8.60;;
11582;SDS011;34299;50.820;4.548;2022-11-14T08:19:10;12.27;;;8.17;;
11582;SDS011;34299;50.820;4.548;2022-11-14T08:21:38;14.30;;;8.37;;
11582;SDS011;34299;50.820;4.548;2022-11-14T08:24:06;12.73;;;8.77;;
11582;SDS011;34299;50.820;4.548;2022-11-14T08:26:33;11.77;;;8.13;;
11582;SDS011;34299;50.820;4.548;2022-11-14T08:29:00;13.77;;;9.10;;
11582;SDS011;34299;50.820;4.548;2022-11-14T08:31:27;11.40;;;8.37;;
11582;SDS011;34299;50.820;4.548;2022-11-14T08:33:55;13.07;;;8.27;;
11582;SDS011;34299;50.820;4.548;2022-11-14T08:36:22;10.97;;;7.57;;
11582;SDS011;34299;50.820;4.548;2022-11-14T08:38:50;11.77;;;8.47;;
11582;SDS011;34299;50.820;4.548;2022-11-14T08:41:17;10.67;;;7.47;;
11582;SDS011;34299;50.820;4.548;2022-11-14T08:43:45;13.33;;;8.77;;
11582;SDS011;34299;50.820;4.548;2022-11-14T08:46:12;11.60;;;7.93;;
11582;SDS011;34299;50.820;4.548;2022-11-14T08:48:39;5.17;;;4.43;;
11582;SDS011;34299;50.820;4.548;2022-11-14T08:51:06;8.47;;;5.13;;
11582;SDS011;34299;50.820;4.548;2022-11-14T08:53:33;6.77;;;5.10;;
11582;SDS011;34299;50.820;4.548;2022-11-14T08:56:02;5.87;;;4.30;;
11582;SDS011;34299;50.820;4.548;2022-11-14T08:58:30;8.80;;;4.47;;
11582;SDS011;34299;50.820;4.548;2022-11-14T09:01:00;5.77;;;4.57;;
11582;SDS011;34299;50.820;4.548;2022-11-14T09:03:28;6.47;;;5.30;;
11582;SDS011;34299;50.820;4.548;2022-11-14T09:05:55;9.50;;;5.53;;
11582;SDS011;34299;50.820;4.548;2022-11-14T09:08:22;8.33;;;5.23;;
11582;SDS011;34299;50.820;4.548;2022-11-14T09:10:49;6.57;;;5.33;;
11582;SDS011;34299;50.820;4.548;2022-11-14T09:13:18;7.83;;;5.90;;
11582;SDS011;34299;50.820;4.548;2022-11-14T09:15:46;8.70;;;5.40;;
11582;SDS011;34299;50.820;4.548;2022-11-14T09:18:13;8.17;;;5.93;;
11582;SDS011;34299;50.820;4.548;2022-11-14T09:20:40;10.00;;;5.73;;
11582;SDS011;34299;50.820;4.548;2022-11-14T09:23:08;9.30;;;5.80;;
11582;SDS011;34299;50.820;4.548;2022-11-14T09:25:35;14.97;;;6.33;;
11582;SDS011;34299;50.820;4.548;2022-11-14T09:28:03;9.87;;;6.43;;
11582;SDS011;34299;50.820;4.548;2022-11-14T09:30:32;9.73;;;6.97;;
11582;SDS011;34299;50.820;4.548;2022-11-14T09:33:00;11.70;;;6.63;;
11582;SDS011;34299;50.820;4.548;2022-11-14T09:35:27;11.47;;;7.13;;
11582;SDS011;34299;50.820;4.548;2022-11-14T09:37:59;10.60;;;6.93;;
11582;SDS011;34299;50.820;4.548;2022-11-14T09:40:26;11.10;;;6.27;;
11582;SDS011;34299;50.820;4.548;2022-11-14T09:42:58;13.40;;;7.40;;
11582;SDS011;34299;50.820;4.548;2022-11-14T09:45:28;12.50;;;7.07;;
11582;SDS011;34299;50.820;4.548;2022-11-14T09:47:59;11.33;;;7.50;;
11582;SDS011;34299;50.820;4.548;2022-11-14T09:50:27;9.97;;;6.30;;
11582;SDS011;34299;50.820;4.548;2022-11-14T09:52:56;7.87;;;6.33;;
11582;SDS011;34299;50.820;4.548;2022-11-14T09:55:26;10.07;;;5.70;;
11582;SDS011;34299;50.820;4.548;2022-11-14T09:57:54;7.60;;;4.70;;
11582;SDS011;34299;50.820;4.548;2022-11-14T10:00:22;7.77;;;5.80;;
11582;SDS011;34299;50.820;4.548;2022-11-14T10:02:54;10.13;;;5.53;;
11582;SDS011;34299;50.820;4.548;2022-11-14T10:05:26;6.80;;;5.03;;
11582;SDS011;34299;50.820;4.548;2022-11-14T10:08:09;9.70;;;5.93;;
11582;SDS011;34299;50.820;4.548;2022-11-14T10:10:49;9.87;;;5.40;;
11582;SDS011;34299;50.820;4.548;2022-11-14T10:13:22;10.70;;;6.40;;
11582;SDS011;34299;50.820;4.548;2022-11-14T10:15:52;10.67;;;5.83;;
11582;SDS011;34299;50.820;4.548;2022-11-14T10:18:27;8.33;;;5.47;;
11582;SDS011;34299;50.820;4.548;2022-11-14T10:20:56;10.57;;;5.83;;
11582;SDS011;34299;50.820;4.548;2022-11-14T10:23:27;8.00;;;5.47;;
11582;SDS011;34299;50.820;4.548;2022-11-14T10:26:01;9.33;;;5.03;;
11582;SDS011;34299;50.820;4.548;2022-11-14T10:28:33;11.20;;;6.13;;
11582;SDS011;34299;50.820;4.548;2022-11-14T10:31:05;9.40;;;6.20;;
11582;SDS011;34299;50.820;4.548;2022-11-14T10:33:35;7.37;;;5.17;;
11582;SDS011;34299;50.820;4.548;2022-11-14T10:36:09;9.30;;;5.80;;
11582;SDS011;34299;50.820;4.548;2022-11-14T10:38:37;7.17;;;5.33;;
11582;SDS011;34299;50.820;4.548;2022-11-14T10:41:08;9.07;;;6.00;;
11582;SDS011;34299;50.820;4.548;2022-11-14T10:43:36;8.67;;;5.60;;
11582;SDS011;34299;50.820;4.548;2022-11-14T10:46:06;8.03;;;5.63;;
11582;SDS011;34299;50.820;4.548;2022-11-14T10:48:35;8.10;;;5.53;;
11582;SDS011;34299;50.820;4.548;2022-11-14T10:51:05;10.13;;;6.07;;
11582;SDS011;34299;50.820;4.548;2022-11-14T10:53:40;10.93;;;6.07;;
11582;SDS011;34299;50.820;4.548;2022-11-14T10:56:09;8.83;;;6.10;;
11582;SDS011;34299;50.820;4.548;2022-11-14T10:58:38;8.40;;;6.33;;
11582;SDS011;34299;50.820;4.548;2022-11-14T11:03:51;10.70;;;5.63;;
11582;SDS011;34299;50.820;4.548;2022-11-14T11:06:23;10.37;;;6.03;;
11582;SDS011;34299;50.820;4.548;2022-11-14T11:08:52;9.57;;;6.10;;
11582;SDS011;34299;50.820;4.548;2022-11-14T11:11:52;7.83;;;5.80;;
11582;SDS011;34299;50.820;4.548;2022-11-14T11:14:19;7.13;;;5.63;;
11582;SDS011;34299;50.820;4.548;2022-11-14T11:16:46;10.10;;;6.00;;
11582;SDS011;34299;50.820;4.548;2022-11-14T11:19:14;10.27;;;6.73;;
11582;SDS011;34299;50.820;4.548;2022-11-14T11:21:48;7.57;;;5.57;;
11582;SDS011;34299;50.820;4.548;2022-11-14T11:24:30;11.30;;;6.87;;
11582;SDS011;34299;50.820;4.548;2022-11-14T11:27:11;9.13;;;5.70;;
11582;SDS011;34299;50.820;4.548;2022-11-14T11:29:38;11.40;;;5.43;;
11582;SDS011;34299;50.820;4.548;2022-11-14T11:32:06;10.00;;;5.40;;
11582;SDS011;34299;50.820;4.548;2022-11-14T11:34:33;12.10;;;6.83;;
11582;SDS011;34299;50.820;4.548;2022-11-14T11:37:03;7.53;;;5.20;;
11582;SDS011;34299;50.820;4.548;2022-11-14T11:39:33;7.90;;;5.23;;
11582;SDS011;34299;50.820;4.548;2022-11-14T11:42:03;9.83;;;5.63;;
11582;SDS011;34299;50.820;4.548;2022-11-14T11:44:33;11.27;;;6.33;;
11582;SDS011;34299;50.820;4.548;2022-11-14T11:47:02;12.15;;;6.20;;
11582;SDS011;34299;50.820;4.548;2022-11-14T11:49:33;8.77;;;5.33;;
11582;SDS011;34299;50.820;4.548;2022-11-14T11:52:02;8.80;;;4.97;;
11582;SDS011;34299;50.820;4.548;2022-11-14T11:54:32;9.80;;;5.17;;
11582;SDS011;34299;50.820;4.548;2022-11-14T11:57:06;7.37;;;4.37;;
11582;SDS011;34299;50.820;4.548;2022-11-14T11:59:36;6.00;;;4.40;;
11582;SDS011;34299;50.820;4.548;2022-11-14T12:02:12;8.37;;;4.67;;
11582;SDS011;34299;50.820;4.548;2022-11-14T12:04:41;5.27;;;2.50;;
11582;SDS011;34299;50.820;4.548;2022-11-14T12:07:09;6.50;;;4.07;;
11582;SDS011;34299;50.820;4.548;2022-11-14T12:09:39;9.63;;;6.30;;
11582;SDS011;34299;50.820;4.548;2022-11-14T12:12:09;7.47;;;4.30;;
11582;SDS011;34299;50.820;4.548;2022-11-14T12:14:51;11.77;;;5.27;;
11582;SDS011;34299;50.820;4.548;2022-11-14T12:17:34;6.37;;;3.53;;
11582;SDS011;34299;50.820;4.548;2022-11-14T12:20:13;9.83;;;5.43;;
11582;SDS011;34299;50.820;4.548;2022-11-14T12:22:54;12.47;;;6.00;;
11582;SDS011;34299;50.820;4.548;2022-11-14T12:25:36;5.87;;;4.33;;
11582;SDS011;34299;50.820;4.548;2022-11-14T12:28:13;20.33;;;4.27;;
11582;SDS011;34299;50.820;4.548;2022-11-14T12:30:41;8.03;;;6.03;;
11582;SDS011;34299;50.820;4.548;2022-11-14T12:33:14;5.40;;;2.90;;
11582;SDS011;34299;50.820;4.548;2022-11-14T12:35:46;8.93;;;6.03;;
11582;SDS011;34299;50.820;4.548;2022-11-14T12:38:16;7.20;;;4.60;;
11582;SDS011;34299;50.820;4.548;2022-11-14T12:40:48;12.20;;;5.17;;
11582;SDS011;34299;50.820;4.548;2022-11-14T12:43:26;12.03;;;6.20;;
11582;SDS011;34299;50.820;4.548;2022-11-14T12:45:55;8.80;;;5.47;;
11582;SDS011;34299;50.820;4.548;2022-11-14T12:48:28;11.57;;;7.37;;
11582;SDS011;34299;50.820;4.548;2022-11-14T12:50:55;17.30;;;8.13;;
11582;SDS011;34299;50.820;4.548;2022-11-14T12:53:36;13.13;;;7.53;;
11582;SDS011;34299;50.820;4.548;2022-11-14T12:56:06;16.50;;;7.90;;
11582;SDS011;34299;50.820;4.548;2022-11-14T13:01:26;14.23;;;7.97;;
11582;SDS011;34299;50.820;4.548;2022-11-14T13:04:02;15.73;;;9.50;;
11582;SDS011;34299;50.820;4.548;2022-11-14T13:06:37;12.03;;;8.63;;
11582;SDS011;34299;50.820;4.548;2022-11-14T13:09:12;17.00;;;10.17;;
11582;SDS011;34299;50.820;4.548;2022-11-14T13:11:46;17.87;;;10.90;;
11582;SDS011;34299;50.820;4.548;2022-11-14T13:14:32;17.73;;;9.40;;
11582;SDS011;34299;50.820;4.548;2022-11-14T13:17:33;15.87;;;10.57;;
11582;SDS011;34299;50.820;4.548;2022-11-14T13:20:28;19.07;;;10.90;;
11582;SDS011;34299;50.820;4.548;2022-11-14T13:28:46;15.67;;;9.50;;
11582;SDS011;34299;50.820;4.548;2022-11-14T13:31:18;19.70;;;10.80;;
11582;SDS011;34299;50.820;4.548;2022-11-14T13:33:46;11.97;;;7.80;;
11582;SDS011;34299;50.820;4.548;2022-11-14T13:36:16;10.97;;;5.10;;
11582;SDS011;34299;50.820;4.548;2022-11-14T13:39:00;19.47;;;9.57;;
11582;SDS011;34299;50.820;4.548;2022-11-14T13:44:20;12.93;;;7.70;;
11582;SDS011;34299;50.820;4.548;2022-11-14T13:46:55;13.07;;;8.13;;
11582;SDS011;34299;50.820;4.548;2022-11-14T13:49:35;10.97;;;8.33;;
11582;SDS011;34299;50.820;4.548;2022-11-14T13:52:05;7.67;;;5.50;;
11582;SDS011;34299;50.820;4.548;2022-11-14T13:54:32;13.03;;;7.97;;
11582;SDS011;34299;50.820;4.548;2022-11-14T13:57:02;13.70;;;8.33;;
11582;SDS011;34299;50.820;4.548;2022-11-14T13:59:37;14.23;;;7.07;;
11582;SDS011;34299;50.820;4.548;2022-11-14T14:02:24;15.47;;;7.63;;
11582;SDS011;34299;50.820;4.548;2022-11-14T14:04:59;9.20;;;5.87;;
11582;SDS011;34299;50.820;4.548;2022-11-14T14:07:32;11.70;;;6.37;;
11582;SDS011;34299;50.820;4.548;2022-11-14T14:10:07;13.93;;;7.63;;
11582;SDS011;34299;50.820;4.548;2022-11-14T14:12:42;5.47;;;4.17;;
11582;SDS011;34299;50.820;4.548;2022-11-14T14:15:18;14.17;;;7.13;;
11582;SDS011;34299;50.820;4.548;2022-11-14T14:17:48;13.33;;;8.73;;
11582;SDS011;34299;50.820;4.548;2022-11-14T14:20:20;14.33;;;8.13;;
11582;SDS011;34299;50.820;4.548;2022-11-14T14:22:55;13.57;;;7.77;;
11582;SDS011;34299;50.820;4.548;2022-11-14T14:25:25;13.20;;;8.23;;
11582;SDS011;34299;50.820;4.548;2022-11-14T14:27:54;14.10;;;8.73;;
11582;SDS011;34299;50.820;4.548;2022-11-14T14:30:24;16.07;;;10.03;;
11582;SDS011;34299;50.820;4.548;2022-11-14T14:33:01;13.87;;;8.70;;
11582;SDS011;34299;50.820;4.548;2022-11-14T14:35:30;14.13;;;8.23;;
11582;SDS011;34299;50.820;4.548;2022-11-14T14:37:57;11.37;;;7.20;;
11582;SDS011;34299;50.820;4.548;2022-11-14T14:40:25;12.40;;;7.50;;
11582;SDS011;34299;50.820;4.548;2022-11-14T14:42:53;12.03;;;7.57;;
11582;SDS011;34299;50.820;4.548;2022-11-14T14:45:21;13.63;;;7.70;;
11582;SDS011;34299;50.820;4.548;2022-11-14T14:47:50;13.53;;;9.03;;
11582;SDS011;34299;50.820;4.548;2022-11-14T14:50:26;13.23;;;8.70;;
11582;SDS011;34299;50.820;4.548;2022-11-14T14:52:56;14.17;;;8.03;;
11582;SDS011;34299;50.820;4.548;2022-11-14T14:55:24;14.13;;;9.00;;
11582;SDS011;34299;50.820;4.548;2022-11-14T14:57:52;16.20;;;9.13;;
11582;SDS011;34299;50.820;4.548;2022-11-14T15:00:20;15.60;;;10.53;;
11582;SDS011;34299;50.820;4.548;2022-11-14T15:02:50;16.30;;;10.10;;